createdAt,value
2017-12-14T00:00:27.744Z,5.90
2017-12-14T00:01:27.738Z,5.91
2017-12-14T00:02:27.733Z,5.95
2017-12-14T00:03:27.729Z,5.92
2017-12-14T00:04:27.722Z,5.91
2017-12-14T00:05:27.719Z,5.95
2017-12-14T00:06:27.712Z,5.90
2017-12-14T00:07:27.710Z,5.80
2017-12-14T00:08:27.703Z,5.94
2017-12-14T00:09:27.697Z,5.87
2017-12-14T00:10:27.693Z,5.94
2017-12-14T00:11:27.688Z,5.98
2017-12-14T00:12:27.682Z,5.91
2017-12-14T00:13:27.676Z,5.90
2017-12-14T00:14:27.672Z,5.92
2017-12-14T00:15:27.667Z,5.94
2017-12-14T00:16:27.661Z,5.84
2017-12-14T00:17:27.656Z,5.99
2017-12-14T00:18:27.652Z,5.84
2017-12-14T00:19:27.646Z,5.90
2017-12-14T00:20:27.640Z,5.94
2017-12-14T00:21:27.636Z,5.90
2017-12-14T00:22:27.631Z,5.92
2017-12-14T00:23:27.626Z,5.90
2017-12-14T00:24:27.622Z,5.83
2017-12-14T00:25:27.616Z,5.84
2017-12-14T00:26:27.609Z,5.84
2017-12-14T00:27:27.607Z,5.90
2017-12-14T00:28:27.601Z,5.95
2017-12-14T00:29:27.595Z,5.83
2017-12-14T00:30:27.591Z,5.90
2017-12-14T00:31:27.636Z,5.92
2017-12-14T00:32:27.580Z,5.91
2017-12-14T00:33:27.574Z,5.87
2017-12-14T00:34:27.570Z,5.83
2017-12-14T00:35:27.565Z,5.99
2017-12-14T00:36:27.561Z,5.99
2017-12-14T00:37:27.554Z,5.91
2017-12-14T00:38:27.551Z,5.97
2017-12-14T00:39:27.552Z,5.99
2017-12-14T00:40:27.540Z,6.06
2017-12-14T00:41:27.535Z,6.12
2017-12-14T00:42:27.531Z,6.16
2017-12-14T00:43:27.525Z,6.12
2017-12-14T00:44:27.520Z,5.99
2017-12-14T00:45:27.516Z,6.13
2017-12-14T00:46:27.514Z,6.13
2017-12-14T00:47:27.505Z,6.15
2017-12-14T00:48:27.500Z,6.07
2017-12-14T00:49:27.495Z,6.06
2017-12-14T00:50:27.490Z,6.07
2017-12-14T00:51:27.486Z,6.06
2017-12-14T00:52:27.486Z,6.07
2017-12-14T00:53:27.476Z,5.99
2017-12-14T00:54:27.470Z,5.94
2017-12-14T00:55:27.467Z,5.92
2017-12-14T00:56:27.462Z,5.98
2017-12-14T00:57:27.456Z,5.99
2017-12-14T00:58:27.451Z,5.92
2017-12-14T00:59:27.445Z,5.94
2017-12-14T01:00:27.442Z,6.06
2017-12-14T01:01:27.436Z,6.06
2017-12-14T01:02:27.431Z,6.01
2017-12-14T01:03:27.426Z,6.02
2017-12-14T01:04:27.422Z,6.07
2017-12-14T01:05:27.417Z,5.92
2017-12-14T01:06:27.412Z,6.02
2017-12-14T01:07:27.409Z,6.05
2017-12-14T01:08:27.410Z,6.10
2017-12-14T01:09:27.398Z,6.05
2017-12-14T01:10:27.393Z,6.01
2017-12-14T01:11:27.389Z,6.17
2017-12-14T01:12:27.386Z,6.12
2017-12-14T01:13:27.379Z,6.16
2017-12-14T01:14:27.400Z,6.15
2017-12-14T01:15:27.376Z,6.13
2017-12-14T01:16:27.365Z,6.05
2017-12-14T01:17:27.360Z,6.09
2017-12-14T01:18:27.356Z,5.97
2017-12-14T01:19:27.351Z,6.15
2017-12-14T01:20:27.347Z,6.06
2017-12-14T01:21:27.341Z,6.01
2017-12-14T01:22:27.336Z,6.12
2017-12-14T01:23:27.333Z,6.12
2017-12-14T01:24:27.328Z,6.13
2017-12-14T01:25:27.322Z,6.16
2017-12-14T01:26:27.317Z,6.15
2017-12-14T01:27:27.313Z,6.22
2017-12-14T01:28:27.309Z,6.31
2017-12-14T01:29:27.303Z,6.32
2017-12-14T01:30:27.299Z,6.39
2017-12-14T01:31:27.296Z,6.46
2017-12-14T01:32:27.291Z,6.44
2017-12-14T01:33:27.286Z,6.44
2017-12-14T01:34:27.282Z,6.64
2017-12-14T01:35:27.277Z,6.59
2017-12-14T01:36:27.272Z,6.57
2017-12-14T01:37:27.266Z,6.78
2017-12-14T01:38:27.264Z,6.72
2017-12-14T01:39:27.258Z,6.72
2017-12-14T01:40:27.255Z,6.78
2017-12-14T01:41:27.251Z,6.82
2017-12-14T01:42:27.246Z,6.74
2017-12-14T01:43:27.240Z,6.82
2017-12-14T01:44:27.237Z,6.67
2017-12-14T01:45:27.232Z,6.70
2017-12-14T01:46:27.227Z,6.67
2017-12-14T01:47:27.223Z,6.67
2017-12-14T01:48:27.219Z,6.64
2017-12-14T01:49:27.213Z,6.52
2017-12-14T01:50:27.208Z,6.54
2017-12-14T01:51:27.204Z,6.67
2017-12-14T01:52:27.201Z,6.82
2017-12-14T01:53:27.195Z,6.72
2017-12-14T01:54:27.191Z,6.72
2017-12-14T01:55:27.187Z,6.68
2017-12-14T01:56:27.184Z,6.74
2017-12-14T01:57:27.177Z,6.64
2017-12-14T01:58:27.174Z,6.59
2017-12-14T01:59:27.171Z,6.52
2017-12-14T02:00:27.165Z,6.49
2017-12-14T02:01:27.160Z,6.49
2017-12-14T02:02:27.156Z,6.44
2017-12-14T02:03:27.152Z,6.38
2017-12-14T02:04:27.147Z,6.34
2017-12-14T02:05:27.143Z,6.36
2017-12-14T02:06:27.137Z,6.47
2017-12-14T02:07:27.134Z,6.39
2017-12-14T02:08:27.129Z,6.38
2017-12-14T02:09:27.133Z,6.46
2017-12-14T02:10:27.119Z,6.44
2017-12-14T02:11:27.116Z,6.47
2017-12-14T02:12:27.112Z,6.62
2017-12-14T02:13:27.108Z,6.54
2017-12-14T02:14:27.103Z,6.43
2017-12-14T02:15:27.097Z,6.29
2017-12-14T02:16:27.097Z,6.13
2017-12-14T02:17:27.092Z,5.92
2017-12-14T02:18:27.084Z,5.76
2017-12-14T02:19:27.079Z,5.55
2017-12-14T02:20:27.075Z,5.43
2017-12-14T02:21:27.070Z,5.43
2017-12-14T02:22:27.065Z,5.31
2017-12-14T02:23:27.063Z,5.20
2017-12-14T02:24:27.058Z,5.16
2017-12-14T02:25:27.050Z,5.25
2017-12-14T02:26:27.054Z,5.22
2017-12-14T02:27:27.042Z,5.28
2017-12-14T02:28:27.039Z,5.29
2017-12-14T02:29:27.033Z,5.25
2017-12-14T02:30:27.029Z,5.23
2017-12-14T02:31:27.024Z,5.29
2017-12-14T02:32:27.019Z,5.36
2017-12-14T02:33:27.015Z,5.44
2017-12-14T02:34:27.010Z,5.46
2017-12-14T02:35:27.006Z,5.40
2017-12-14T02:36:27.002Z,5.44
2017-12-14T02:37:26.996Z,5.55
2017-12-14T02:38:26.990Z,5.49
2017-12-14T02:39:26.986Z,5.55
2017-12-14T02:40:26.981Z,5.49
2017-12-14T02:41:26.975Z,5.58
2017-12-14T02:42:26.971Z,5.58
2017-12-14T02:43:26.967Z,5.62
2017-12-14T02:44:26.962Z,5.59
2017-12-14T02:45:26.958Z,5.59
2017-12-14T02:46:26.953Z,5.64
2017-12-14T02:47:26.949Z,5.67
2017-12-14T02:48:26.945Z,5.69
2017-12-14T02:49:26.938Z,5.67
2017-12-14T02:50:26.938Z,5.69
2017-12-14T02:51:26.929Z,5.74
2017-12-14T02:52:26.926Z,5.72
2017-12-14T02:53:26.920Z,5.77
2017-12-14T02:54:26.917Z,5.83
2017-12-14T02:55:26.913Z,5.87
2017-12-14T02:56:26.907Z,5.83
2017-12-14T02:57:26.902Z,5.81
2017-12-14T02:58:26.898Z,5.88
2017-12-14T02:59:26.893Z,5.80
2017-12-14T03:00:26.889Z,5.87
2017-12-14T03:01:26.884Z,5.88
2017-12-14T03:02:26.881Z,6.01
2017-12-14T03:03:26.875Z,5.88
2017-12-14T03:04:26.872Z,5.94
2017-12-14T03:05:26.867Z,6.01
2017-12-14T03:06:26.864Z,5.97
2017-12-14T03:07:26.858Z,6.12
2017-12-14T03:08:26.853Z,5.98
2017-12-14T03:09:26.848Z,5.98
2017-12-14T03:10:26.844Z,5.98
2017-12-14T03:11:26.843Z,6.05
2017-12-14T03:12:26.836Z,6.09
2017-12-14T03:13:26.830Z,6.16
2017-12-14T03:14:26.826Z,6.26
2017-12-14T03:15:26.821Z,6.09
2017-12-14T03:16:26.818Z,6.12
2017-12-14T03:17:26.813Z,6.17
2017-12-14T03:18:26.808Z,6.17
2017-12-14T03:19:26.804Z,6.15
2017-12-14T03:20:26.800Z,6.09
2017-12-14T03:21:26.796Z,6.10
2017-12-14T03:22:26.791Z,6.10
2017-12-14T03:23:26.788Z,5.99
2017-12-14T03:24:26.784Z,5.99
2017-12-14T03:25:26.779Z,5.99
2017-12-14T03:26:26.775Z,6.01
2017-12-14T03:27:26.770Z,6.06
2017-12-14T03:28:26.764Z,6.02
2017-12-14T03:29:26.759Z,6.01
2017-12-14T03:30:26.756Z,6.09
2017-12-14T03:31:26.754Z,6.10
2017-12-14T03:32:26.748Z,6.15
2017-12-14T03:33:26.741Z,6.16
2017-12-14T03:34:26.737Z,6.17
2017-12-14T03:35:26.734Z,6.12
2017-12-14T03:36:26.731Z,6.28
2017-12-14T03:37:26.724Z,6.25
2017-12-14T03:38:26.720Z,6.17
2017-12-14T03:39:26.717Z,6.07
2017-12-14T03:40:26.712Z,6.05
2017-12-14T03:41:26.759Z,6.06
2017-12-14T03:42:26.702Z,6.05
2017-12-14T03:43:26.698Z,6.02
2017-12-14T03:44:26.695Z,5.99
2017-12-14T03:45:26.690Z,6.01
2017-12-14T03:46:26.685Z,6.12
2017-12-14T03:47:26.681Z,6.05
2017-12-14T03:48:26.680Z,5.91
2017-12-14T03:49:26.671Z,6.06
2017-12-14T03:50:26.669Z,6.06
2017-12-14T03:51:26.664Z,5.99
2017-12-14T03:52:26.660Z,5.99
2017-12-14T03:53:26.655Z,5.94
2017-12-14T03:54:26.650Z,5.87
2017-12-14T03:55:26.646Z,5.83
2017-12-14T03:56:26.641Z,5.64
2017-12-14T03:57:26.637Z,5.80
2017-12-14T03:58:26.631Z,5.74
2017-12-14T03:59:26.633Z,5.70
2017-12-14T04:00:26.623Z,5.81
2017-12-14T04:01:26.618Z,5.80
2017-12-14T04:02:26.612Z,5.91
2017-12-14T04:03:26.607Z,5.92
2017-12-14T04:04:26.604Z,5.95
2017-12-14T04:05:26.597Z,5.94
2017-12-14T04:06:26.593Z,5.95
2017-12-14T04:07:26.589Z,6.12
2017-12-14T04:08:26.583Z,6.02
2017-12-14T04:09:26.579Z,6.02
2017-12-14T04:10:26.574Z,6.02
2017-12-14T04:11:26.567Z,6.02
2017-12-14T04:12:26.563Z,6.05
2017-12-14T04:13:26.558Z,5.94
2017-12-14T04:14:26.552Z,5.97
2017-12-14T04:15:26.551Z,5.92
2017-12-14T04:16:26.544Z,5.97
2017-12-14T04:17:26.540Z,5.95
2017-12-14T04:18:26.534Z,5.80
2017-12-14T04:19:26.531Z,5.83
2017-12-14T04:20:26.530Z,5.80
2017-12-14T04:21:26.520Z,5.72
2017-12-14T04:22:26.515Z,5.55
2017-12-14T04:23:26.511Z,5.43
2017-12-14T04:24:26.506Z,5.28
2017-12-14T04:25:26.500Z,5.08
2017-12-14T04:26:26.495Z,5.05
2017-12-14T04:27:26.491Z,5.12
2017-12-14T04:28:26.486Z,5.12
2017-12-14T04:29:26.481Z,5.20
2017-12-14T04:30:26.475Z,5.19
2017-12-14T04:31:26.474Z,5.19
2017-12-14T04:32:26.468Z,5.08
2017-12-14T04:33:26.461Z,5.20
2017-12-14T04:34:26.457Z,5.15
2017-12-14T04:35:26.451Z,5.19
2017-12-14T04:36:26.447Z,5.15
2017-12-14T04:37:26.440Z,5.12
2017-12-14T04:38:26.437Z,5.16
2017-12-14T04:39:26.431Z,5.12
2017-12-14T04:40:26.427Z,4.97
2017-12-14T04:41:26.421Z,4.98
2017-12-14T04:42:26.417Z,4.92
2017-12-14T04:43:26.412Z,4.94
2017-12-14T04:44:26.408Z,4.89
2017-12-14T04:45:26.404Z,4.95
2017-12-14T04:46:26.397Z,4.87
2017-12-14T04:47:26.392Z,4.83
2017-12-14T04:48:26.388Z,4.84
2017-12-14T04:49:26.381Z,4.87
2017-12-14T04:50:26.375Z,4.89
2017-12-14T04:51:26.379Z,4.86
2017-12-14T04:52:26.365Z,4.76
2017-12-14T04:53:26.365Z,4.79
2017-12-14T04:54:26.355Z,4.83
2017-12-14T04:55:26.352Z,5.00
2017-12-14T04:56:26.346Z,5.05
2017-12-14T04:57:26.341Z,5.23
2017-12-14T04:58:26.333Z,5.52
2017-12-14T04:59:26.331Z,5.92
2017-12-14T05:00:26.325Z,6.20
2017-12-14T05:01:26.320Z,6.20
2017-12-14T05:02:26.315Z,6.32
2017-12-14T05:03:26.311Z,6.34
2017-12-14T05:04:26.305Z,6.41
2017-12-14T05:05:26.300Z,6.44
2017-12-14T05:06:26.294Z,6.44
2017-12-14T05:07:26.289Z,6.59
2017-12-14T05:08:26.285Z,6.59
2017-12-14T05:09:26.278Z,6.64
2017-12-14T05:10:26.274Z,6.64
2017-12-14T05:11:26.269Z,6.57
2017-12-14T05:12:26.265Z,6.43
2017-12-14T05:13:26.259Z,6.47
2017-12-14T05:14:26.252Z,6.34
2017-12-14T05:15:26.250Z,6.36
2017-12-14T05:16:26.244Z,6.35
2017-12-14T05:17:26.239Z,6.35
2017-12-14T05:18:26.234Z,6.32
2017-12-14T05:19:26.230Z,6.32
2017-12-14T05:20:26.224Z,6.38
2017-12-14T05:21:26.219Z,6.38
2017-12-14T05:22:26.216Z,6.35
2017-12-14T05:23:26.208Z,6.38
2017-12-14T05:24:26.204Z,6.32
2017-12-14T05:25:26.197Z,6.41
2017-12-14T05:26:26.194Z,6.36
2017-12-14T05:27:26.189Z,6.43
2017-12-14T05:28:26.184Z,6.52
2017-12-14T05:29:26.179Z,6.62
2017-12-14T05:30:26.178Z,6.64
2017-12-14T05:31:26.170Z,6.60
2017-12-14T05:32:26.165Z,6.54
2017-12-14T05:33:26.159Z,6.70
2017-12-14T05:34:26.154Z,6.80
2017-12-14T05:35:26.148Z,6.83
2017-12-14T05:36:26.144Z,6.85
2017-12-14T05:37:26.138Z,6.86
2017-12-14T05:38:26.134Z,6.89
2017-12-14T05:39:26.128Z,6.86
2017-12-14T05:40:26.125Z,6.95
2017-12-14T05:41:26.118Z,6.87
2017-12-14T05:42:26.114Z,6.82
2017-12-14T05:43:26.108Z,6.77
2017-12-14T05:44:26.106Z,6.75
2017-12-14T05:45:26.098Z,6.74
2017-12-14T05:46:26.095Z,6.74
2017-12-14T05:47:26.089Z,6.72
2017-12-14T05:48:26.085Z,6.82
2017-12-14T05:49:26.080Z,6.71
2017-12-14T05:50:26.075Z,6.72
2017-12-14T05:51:26.070Z,6.83
2017-12-14T05:52:26.065Z,6.62
2017-12-14T05:53:26.058Z,6.64
2017-12-14T05:54:26.054Z,6.59
2017-12-14T05:55:26.049Z,6.59
2017-12-14T05:56:26.044Z,6.59
2017-12-14T05:57:26.040Z,6.64
2017-12-14T05:58:26.034Z,6.62
2017-12-14T05:59:26.029Z,6.62
2017-12-14T06:00:26.025Z,6.62
2017-12-14T06:01:26.021Z,6.62
2017-12-14T06:02:26.014Z,6.74
2017-12-14T06:03:26.010Z,6.74
2017-12-14T06:04:26.004Z,6.68
2017-12-14T06:05:25.999Z,6.95
2017-12-14T06:06:25.993Z,7.08
2017-12-14T06:07:25.990Z,7.21
2017-12-14T06:08:25.984Z,7.36
2017-12-14T06:09:25.978Z,7.44
2017-12-14T06:10:25.975Z,7.72
2017-12-14T06:11:25.969Z,7.85
2017-12-14T06:12:25.966Z,7.88
2017-12-14T06:13:25.960Z,7.88
2017-12-14T06:14:25.955Z,7.90
2017-12-14T06:15:25.950Z,7.93
2017-12-14T06:16:25.946Z,7.90
2017-12-14T06:17:25.939Z,7.98
2017-12-14T06:18:25.935Z,7.87
2017-12-14T06:19:25.932Z,7.75
2017-12-14T06:20:25.927Z,7.77
2017-12-14T06:21:25.920Z,7.81
2017-12-14T06:22:25.917Z,7.77
2017-12-14T06:23:25.913Z,7.83
2017-12-14T06:24:25.908Z,7.84
2017-12-14T06:25:25.904Z,7.90
2017-12-14T06:26:25.898Z,7.84
2017-12-14T06:27:25.895Z,8.08
2017-12-14T06:28:25.890Z,8.08
2017-12-14T06:29:25.886Z,8.20
2017-12-14T06:30:25.881Z,8.35
2017-12-14T06:31:25.876Z,8.35
2017-12-14T06:32:25.873Z,8.32
2017-12-14T06:33:25.868Z,8.35
2017-12-14T06:34:25.863Z,8.32
2017-12-14T06:35:25.861Z,8.14
2017-12-14T06:36:25.856Z,8.27
2017-12-14T06:37:25.851Z,8.18
2017-12-14T06:38:25.846Z,8.34
2017-12-14T06:39:25.842Z,8.31
2017-12-14T06:40:25.839Z,8.39
2017-12-14T06:41:25.834Z,8.39
2017-12-14T06:42:25.828Z,8.41
2017-12-14T06:43:25.825Z,8.36
2017-12-14T06:44:25.822Z,8.41
2017-12-14T06:45:25.817Z,8.38
2017-12-14T06:46:25.811Z,8.32
2017-12-14T06:47:25.808Z,8.24
2017-12-14T06:48:25.803Z,8.17
2017-12-14T06:49:25.799Z,8.18
2017-12-14T06:50:25.796Z,8.26
2017-12-14T06:51:25.792Z,8.16
2017-12-14T06:52:25.788Z,8.14
2017-12-14T06:53:25.782Z,8.21
2017-12-14T06:54:25.779Z,8.20
2017-12-14T06:55:25.774Z,8.16
2017-12-14T06:56:25.771Z,8.14
2017-12-14T06:57:25.764Z,8.21
2017-12-14T06:58:25.760Z,8.08
2017-12-14T06:59:25.756Z,8.11
2017-12-14T07:00:25.757Z,8.08
2017-12-14T07:01:25.747Z,7.70
2017-12-14T07:02:25.745Z,6.39
2017-12-14T07:03:25.740Z,5.43
2017-12-14T07:04:25.736Z,4.84
2017-12-14T07:05:25.730Z,4.46
2017-12-14T07:06:25.726Z,4.20
2017-12-14T07:07:25.720Z,3.92
2017-12-14T07:08:25.716Z,3.73
2017-12-14T07:09:25.710Z,3.63
2017-12-14T07:10:25.707Z,3.52
2017-12-14T07:11:25.701Z,3.41
2017-12-14T07:12:25.695Z,3.22
2017-12-14T07:13:25.690Z,3.13
2017-12-14T07:14:25.685Z,3.05
2017-12-14T07:15:25.680Z,2.90
2017-12-14T07:16:25.674Z,2.73
2017-12-14T07:17:25.666Z,2.73
2017-12-14T07:18:25.662Z,2.43
2017-12-14T07:19:25.653Z,2.30
2017-12-14T07:20:25.650Z,2.04
2017-12-14T07:21:25.644Z,1.98
2017-12-14T07:22:25.635Z,1.81
2017-12-14T07:23:25.629Z,1.78
2017-12-14T07:24:25.621Z,1.71
2017-12-14T07:25:25.615Z,1.57
2017-12-14T07:26:25.607Z,1.48
2017-12-14T07:27:25.603Z,1.36
2017-12-14T07:28:25.594Z,1.31
2017-12-14T07:29:25.587Z,1.30
2017-12-14T07:30:25.579Z,1.30
2017-12-14T07:31:25.572Z,1.31
2017-12-14T07:32:25.565Z,1.28
2017-12-14T07:33:25.556Z,1.30
2017-12-14T07:34:25.550Z,1.30
2017-12-14T07:35:25.543Z,1.30
2017-12-14T07:36:25.536Z,1.31
2017-12-14T07:37:25.531Z,1.25
2017-12-14T07:38:25.521Z,1.40
2017-12-14T07:39:25.513Z,1.45
2017-12-14T07:40:25.505Z,1.38
2017-12-14T07:41:25.498Z,1.48
2017-12-14T07:42:25.490Z,1.42
2017-12-14T07:43:25.483Z,1.38
2017-12-14T07:44:25.475Z,1.39
2017-12-14T07:45:25.466Z,1.28
2017-12-14T07:46:25.459Z,1.34
2017-12-14T07:47:25.452Z,1.30
2017-12-14T07:48:25.444Z,1.36
2017-12-14T07:49:25.435Z,1.34
2017-12-14T07:50:25.429Z,1.45
2017-12-14T07:51:25.420Z,1.52
2017-12-14T07:52:25.413Z,1.45
2017-12-14T07:53:25.404Z,1.48
2017-12-14T07:54:25.398Z,1.74
2017-12-14T07:55:25.389Z,1.67
2017-12-14T07:56:25.382Z,1.70
2017-12-14T07:57:25.374Z,1.68
2017-12-14T07:58:25.366Z,1.67
2017-12-14T07:59:25.359Z,1.76
2017-12-14T08:00:25.352Z,1.71
2017-12-14T08:01:25.401Z,1.81
2017-12-14T08:02:25.336Z,1.82
2017-12-14T08:03:25.327Z,2.00
2017-12-14T08:04:25.320Z,2.01
2017-12-14T08:05:25.311Z,1.92
2017-12-14T08:06:25.304Z,2.03
2017-12-14T08:07:25.296Z,1.92
2017-12-14T08:08:25.289Z,1.82
2017-12-14T08:09:25.280Z,1.92
2017-12-14T08:10:25.524Z,1.84
2017-12-14T08:11:25.266Z,1.81
2017-12-14T08:12:25.259Z,1.84
2017-12-14T08:13:25.249Z,1.85
2017-12-14T08:14:25.243Z,1.88
2017-12-14T08:15:25.235Z,1.78
2017-12-14T08:16:25.227Z,1.76
2017-12-14T08:17:25.219Z,1.76
2017-12-14T08:18:25.214Z,1.86
2017-12-14T08:19:25.204Z,1.81
2017-12-14T08:20:25.196Z,1.74
2017-12-14T08:21:25.188Z,1.79
2017-12-14T08:22:25.182Z,1.82
2017-12-14T08:23:25.174Z,1.78
2017-12-14T08:24:25.166Z,1.75
2017-12-14T08:25:25.156Z,1.74
2017-12-14T08:26:25.150Z,1.84
2017-12-14T08:27:25.144Z,1.84
2017-12-14T08:28:25.136Z,1.84
2017-12-14T08:29:25.128Z,1.81
2017-12-14T08:30:25.120Z,1.75
2017-12-14T08:31:25.112Z,1.81
2017-12-14T08:32:25.105Z,1.74
2017-12-14T08:33:25.098Z,1.82
2017-12-14T08:34:25.090Z,1.75
2017-12-14T08:35:25.083Z,1.76
2017-12-14T08:36:25.075Z,1.68
2017-12-14T08:37:25.066Z,1.71
2017-12-14T08:38:25.059Z,1.74
2017-12-14T08:39:25.051Z,1.84
2017-12-14T08:40:25.045Z,1.78
2017-12-14T08:41:25.037Z,1.84
2017-12-14T08:42:25.028Z,1.88
2017-12-14T08:43:25.022Z,1.89
2017-12-14T08:44:25.016Z,1.85
2017-12-14T08:45:25.007Z,1.95
2017-12-14T08:46:24.999Z,1.93
2017-12-14T08:47:24.993Z,1.93
2017-12-14T08:48:24.984Z,1.95
2017-12-14T08:49:24.976Z,1.95
2017-12-14T08:50:24.969Z,1.98
2017-12-14T08:51:24.962Z,2.00
2017-12-14T08:52:24.955Z,2.07
2017-12-14T08:53:24.949Z,2.14
2017-12-14T08:54:24.940Z,2.10
2017-12-14T08:55:24.932Z,2.16
2017-12-14T08:56:24.925Z,2.32
2017-12-14T08:57:24.918Z,2.32
2017-12-14T08:58:24.911Z,2.44
2017-12-14T08:59:24.904Z,2.59
2017-12-14T09:00:24.896Z,2.59
2017-12-14T09:01:24.890Z,2.70
2017-12-14T09:02:24.886Z,2.73
2017-12-14T09:03:24.882Z,2.76
2017-12-14T09:04:24.869Z,2.82
2017-12-14T09:05:24.861Z,2.85
2017-12-14T09:06:24.854Z,2.94
2017-12-14T09:07:24.850Z,3.05
2017-12-14T09:08:24.840Z,3.06
2017-12-14T09:09:24.832Z,3.01
2017-12-14T09:10:24.825Z,3.05
2017-12-14T09:11:24.819Z,3.05
2017-12-14T09:12:24.812Z,2.91
2017-12-14T09:13:24.804Z,2.95
2017-12-14T09:14:24.797Z,3.09
2017-12-14T09:15:24.792Z,3.13
2017-12-14T09:16:24.784Z,3.24
2017-12-14T09:17:24.777Z,3.24
2017-12-14T09:18:24.772Z,3.21
2017-12-14T09:19:24.764Z,3.08
2017-12-14T09:20:24.758Z,3.21
2017-12-14T09:21:24.751Z,3.29
2017-12-14T09:22:24.744Z,3.41
2017-12-14T09:23:24.739Z,3.33
2017-12-14T09:24:24.730Z,3.41
2017-12-14T09:25:24.723Z,3.53
2017-12-14T09:26:24.719Z,3.46
2017-12-14T09:27:24.710Z,3.48
2017-12-14T09:28:24.705Z,3.55
2017-12-14T09:29:24.695Z,3.52
2017-12-14T09:30:24.689Z,3.59
2017-12-14T09:31:24.683Z,3.66
2017-12-14T09:32:24.677Z,3.67
2017-12-14T09:33:24.669Z,3.71
2017-12-14T09:34:24.664Z,3.76
2017-12-14T09:35:24.655Z,3.86
2017-12-14T09:36:24.651Z,3.73
2017-12-14T09:37:24.643Z,3.81
2017-12-14T09:38:24.636Z,3.71
2017-12-14T09:39:24.634Z,3.70
2017-12-14T09:40:24.624Z,3.71
2017-12-14T09:41:24.616Z,3.74
2017-12-14T09:42:24.609Z,3.71
2017-12-14T09:43:24.604Z,3.86
2017-12-14T09:44:24.598Z,3.89
2017-12-14T09:45:24.590Z,3.88
2017-12-14T09:46:24.584Z,3.81
2017-12-14T09:47:24.577Z,3.84
2017-12-14T09:48:24.571Z,3.88
2017-12-14T09:49:24.565Z,3.92
2017-12-14T09:50:24.559Z,3.91
2017-12-14T09:51:24.551Z,3.85
2017-12-14T09:52:24.545Z,3.84
2017-12-14T09:53:24.538Z,3.89
2017-12-14T09:54:24.532Z,4.03
2017-12-14T09:55:24.525Z,4.12
2017-12-14T09:56:24.519Z,4.20
2017-12-14T09:57:24.513Z,4.34
2017-12-14T09:58:24.506Z,4.50
2017-12-14T09:59:24.500Z,4.57
2017-12-14T10:00:24.495Z,4.56
2017-12-14T10:01:24.490Z,4.63
2017-12-14T10:02:24.482Z,4.74
2017-12-14T10:03:24.485Z,4.70
2017-12-14T10:04:24.470Z,4.71
2017-12-14T10:05:24.464Z,4.70
2017-12-14T10:06:24.458Z,4.68
2017-12-14T10:07:24.452Z,4.71
2017-12-14T10:08:24.446Z,4.74
2017-12-14T10:09:24.441Z,4.68
2017-12-14T10:10:24.435Z,4.82
2017-12-14T10:11:24.428Z,4.74
2017-12-14T10:12:24.427Z,4.76
2017-12-14T10:13:24.418Z,4.82
2017-12-14T10:14:24.411Z,4.95
2017-12-14T10:15:24.406Z,5.00
2017-12-14T10:16:24.401Z,5.02
2017-12-14T10:17:24.395Z,4.98
2017-12-14T10:18:24.412Z,5.07
2017-12-14T10:19:24.384Z,5.20
2017-12-14T10:20:24.380Z,5.34
2017-12-14T10:21:24.372Z,5.22
2017-12-14T10:22:24.369Z,5.20
2017-12-14T10:23:24.364Z,5.26
2017-12-14T10:24:24.358Z,5.22
2017-12-14T10:25:24.353Z,5.18
2017-12-14T10:26:24.348Z,5.20
2017-12-14T10:27:24.343Z,5.20
2017-12-14T10:28:24.338Z,5.16
2017-12-14T10:29:24.332Z,5.20
2017-12-14T10:30:24.327Z,5.26
2017-12-14T10:31:24.323Z,5.26
2017-12-14T10:32:24.320Z,5.15
2017-12-14T10:33:24.312Z,5.08
2017-12-14T10:34:24.309Z,5.04
2017-12-14T10:35:24.304Z,4.90
2017-12-14T10:36:24.298Z,4.98
2017-12-14T10:37:24.292Z,5.02
2017-12-14T10:38:24.288Z,5.02
2017-12-14T10:39:24.597Z,5.05
2017-12-14T10:40:24.279Z,5.00
2017-12-14T10:41:24.273Z,5.07
2017-12-14T10:42:24.268Z,5.07
2017-12-14T10:43:24.263Z,5.08
2017-12-14T10:44:24.260Z,5.07
2017-12-14T10:45:24.253Z,4.98
2017-12-14T10:46:24.248Z,5.07
2017-12-14T10:47:24.243Z,5.16
2017-12-14T10:48:24.237Z,5.15
2017-12-14T10:49:24.231Z,5.20
2017-12-14T10:50:24.226Z,5.37
2017-12-14T10:51:24.226Z,5.59
2017-12-14T10:52:24.217Z,5.65
2017-12-14T10:53:24.211Z,5.72
2017-12-14T10:54:24.207Z,5.72
2017-12-14T10:55:24.203Z,5.61
2017-12-14T10:56:24.196Z,5.70
2017-12-14T10:57:24.192Z,5.72
2017-12-14T10:58:24.217Z,5.76
2017-12-14T10:59:24.180Z,5.72
2017-12-14T11:00:24.176Z,5.77
2017-12-14T11:01:24.171Z,5.69
2017-12-14T11:02:24.167Z,5.72
2017-12-14T11:03:24.163Z,5.70
2017-12-14T11:04:24.165Z,5.72
2017-12-14T11:05:24.152Z,5.76
2017-12-14T11:06:24.147Z,5.70
2017-12-14T11:07:24.143Z,5.61
2017-12-14T11:08:24.138Z,5.67
2017-12-14T11:09:24.133Z,5.62
2017-12-14T11:10:24.127Z,5.73
2017-12-14T11:11:24.123Z,5.52
2017-12-14T11:12:24.118Z,5.47
2017-12-14T11:13:24.160Z,5.40
2017-12-14T11:14:24.108Z,5.34
2017-12-14T11:15:24.102Z,5.26
2017-12-14T11:16:24.098Z,5.29
2017-12-14T11:17:24.093Z,5.18
2017-12-14T11:18:24.087Z,5.20
2017-12-14T11:19:24.082Z,5.18
2017-12-14T11:20:24.077Z,5.08
2017-12-14T11:21:24.071Z,5.05
2017-12-14T11:22:24.066Z,5.05
2017-12-14T11:23:24.061Z,5.13
2017-12-14T11:24:24.056Z,5.00
2017-12-14T11:25:24.050Z,4.82
2017-12-14T11:26:24.045Z,4.83
2017-12-14T11:27:24.040Z,4.79
2017-12-14T11:28:24.033Z,4.79
2017-12-14T11:29:24.029Z,4.71
2017-12-14T11:30:24.023Z,4.66
2017-12-14T11:31:24.017Z,4.52
2017-12-14T11:32:24.012Z,4.27
2017-12-14T11:33:24.006Z,4.46
2017-12-14T11:34:24.000Z,4.43
2017-12-14T11:35:23.996Z,4.45
2017-12-14T11:36:23.990Z,4.60
2017-12-14T11:37:23.983Z,4.52
2017-12-14T11:38:23.978Z,4.48
2017-12-14T11:39:23.976Z,4.57
2017-12-14T11:40:23.967Z,4.70
2017-12-14T11:41:23.961Z,4.61
2017-12-14T11:42:23.960Z,4.61
2017-12-14T11:43:23.951Z,4.67
2017-12-14T11:44:23.945Z,4.63
2017-12-14T11:45:23.939Z,4.57
2017-12-14T11:46:23.933Z,4.52
2017-12-14T11:47:23.929Z,4.57
2017-12-14T11:48:23.923Z,4.58
2017-12-14T11:49:23.948Z,4.53
2017-12-14T11:50:23.913Z,4.42
2017-12-14T11:51:23.906Z,4.28
2017-12-14T11:52:23.902Z,4.31
2017-12-14T11:53:23.896Z,4.34
2017-12-14T11:54:23.891Z,4.40
2017-12-14T11:55:23.885Z,4.36
2017-12-14T11:56:23.879Z,4.30
2017-12-14T11:57:23.873Z,4.39
2017-12-14T11:58:23.867Z,4.27
2017-12-14T11:59:23.862Z,4.30
2017-12-14T12:00:23.856Z,4.16
2017-12-14T12:01:23.850Z,4.27
2017-12-14T12:02:23.844Z,4.24
2017-12-14T12:03:23.839Z,4.16
2017-12-14T12:04:23.834Z,4.14
2017-12-14T12:05:23.829Z,4.24
2017-12-14T12:06:23.822Z,4.04
2017-12-14T12:07:23.818Z,4.04
2017-12-14T12:08:23.812Z,3.92
2017-12-14T12:09:23.805Z,3.95
2017-12-14T12:10:23.801Z,3.94
2017-12-14T12:11:23.794Z,4.02
2017-12-14T12:12:23.789Z,4.07
2017-12-14T12:13:23.780Z,4.04
2017-12-14T12:14:23.776Z,4.12
2017-12-14T12:15:23.770Z,4.20
2017-12-14T12:16:23.819Z,4.18
2017-12-14T12:17:23.759Z,4.20
2017-12-14T12:18:23.750Z,4.16
2017-12-14T12:19:23.746Z,4.13
2017-12-14T12:20:23.739Z,4.27
2017-12-14T12:21:23.734Z,4.25
2017-12-14T12:22:23.728Z,4.50
2017-12-14T12:23:23.722Z,4.53
2017-12-14T12:24:23.718Z,4.60
2017-12-14T12:25:23.710Z,4.71
2017-12-14T12:26:23.705Z,4.64
2017-12-14T12:27:23.699Z,4.76
2017-12-14T12:28:23.694Z,4.83
2017-12-14T12:29:23.686Z,4.79
2017-12-14T12:30:23.682Z,4.75
2017-12-14T12:31:23.676Z,4.70
2017-12-14T12:32:23.674Z,4.67
2017-12-14T12:33:23.664Z,4.61
2017-12-14T12:34:23.658Z,4.64
2017-12-14T12:35:23.654Z,4.68
2017-12-14T12:36:23.647Z,4.57
2017-12-14T12:37:23.642Z,4.76
2017-12-14T12:38:23.636Z,4.78
2017-12-14T12:39:23.630Z,4.84
2017-12-14T12:40:23.627Z,4.82
2017-12-14T12:41:23.618Z,4.83
2017-12-14T12:42:23.612Z,4.83
2017-12-14T12:43:23.608Z,4.78
2017-12-14T12:44:23.602Z,4.87
2017-12-14T12:45:23.596Z,4.90
2017-12-14T12:46:23.589Z,4.95
2017-12-14T12:47:23.586Z,5.05
2017-12-14T12:48:23.623Z,5.01
2017-12-14T12:49:23.573Z,4.90
2017-12-14T12:50:23.569Z,4.83
2017-12-14T12:51:23.563Z,4.84
2017-12-14T12:52:23.558Z,4.89
2017-12-14T12:53:23.551Z,4.89
2017-12-14T12:54:23.545Z,4.82
2017-12-14T12:55:23.540Z,4.87
2017-12-14T12:56:23.534Z,4.90
2017-12-14T12:57:23.528Z,4.95
2017-12-14T12:58:23.523Z,4.86
2017-12-14T12:59:23.515Z,5.02
2017-12-14T13:00:23.512Z,5.00
2017-12-14T13:01:23.504Z,4.89
2017-12-14T13:02:23.500Z,4.87
2017-12-14T13:03:23.495Z,4.90
2017-12-14T13:04:23.489Z,4.83
2017-12-14T13:05:23.483Z,4.90
2017-12-14T13:06:23.476Z,4.86
2017-12-14T13:07:23.475Z,4.86
2017-12-14T13:08:23.467Z,4.92
2017-12-14T13:09:23.465Z,4.83
2017-12-14T13:10:23.455Z,4.84
2017-12-14T13:11:23.449Z,4.95
2017-12-14T13:12:23.444Z,4.76
2017-12-14T13:13:23.438Z,4.87
2017-12-14T13:14:23.434Z,4.82
2017-12-14T13:15:23.429Z,4.79
2017-12-14T13:16:23.423Z,4.68
2017-12-14T13:17:23.416Z,4.63
2017-12-14T13:18:23.411Z,4.63